createdAt,value
2023-04-03T00:01:11.252Z,4.16
2023-04-03T00:04:14.010Z,4.20
2023-04-03T00:07:18.115Z,4.12
2023-04-03T00:10:21.570Z,3.96
2023-04-03T00:13:25.243Z,3.76
2023-04-03T00:16:27.955Z,3.96
2023-04-03T00:19:30.842Z,3.86
2023-04-03T00:22:34.885Z,3.78
2023-04-03T00:25:38.017Z,3.73
2023-04-03T00:28:40.876Z,3.70
2023-04-03T00:31:43.556Z,3.58
2023-04-03T00:34:46.275Z,3.44
2023-04-03T00:37:52.439Z,3.26
2023-04-03T00:40:55.144Z,3.17
2023-04-03T00:43:57.824Z,3.09
2023-04-03T00:47:00.814Z,3.03
2023-04-03T00:50:04.604Z,2.97
2023-04-03T00:53:11.776Z,2.88
2023-04-03T00:56:19.180Z,2.82
2023-04-03T00:59:27.500Z,2.79
2023-04-03T01:02:30.305Z,2.70
2023-04-03T01:05:33.957Z,2.64
2023-04-03T01:08:38.121Z,2.55
2023-04-03T01:11:41.427Z,2.54
2023-04-03T01:14:45.006Z,2.50
2023-04-03T01:17:50.470Z,2.48
2023-04-03T01:21:25.852Z,2.47
2023-04-03T01:24:40.665Z,2.36
2023-04-03T01:27:43.381Z,2.33
2023-04-03T01:30:52.541Z,2.26
2023-04-03T01:33:57.303Z,2.07
2023-04-03T01:37:00.122Z,2.20
2023-04-03T01:40:04.052Z,2.16
2023-04-03T01:43:06.750Z,2.13
2023-04-03T01:46:09.859Z,2.11
2023-04-03T01:49:16.541Z,2.05
2023-04-03T01:52:19.238Z,2.04
2023-04-03T01:55:24.103Z,1.97
2023-04-03T01:58:26.950Z,1.96
2023-04-03T02:01:29.645Z,1.91
2023-04-03T02:04:33.796Z,1.92
2023-04-03T02:07:38.942Z,1.85
2023-04-03T02:10:41.799Z,1.84
2023-04-03T02:13:44.464Z,1.65
2023-04-03T02:16:47.154Z,1.77
2023-04-03T02:19:51.248Z,1.71
2023-04-03T02:22:53.901Z,1.67
2023-04-03T02:26:08.447Z,1.65
2023-04-03T02:29:11.149Z,1.64
2023-04-03T02:32:13.960Z,1.60
2023-04-03T02:35:18.100Z,1.58
2023-04-03T02:38:20.908Z,1.50
2023-04-03T02:41:33.246Z,1.52
2023-04-03T02:44:36.641Z,1.51
2023-04-03T02:47:39.434Z,1.50
2023-04-03T02:50:44.373Z,1.49
2023-04-03T02:53:47.143Z,1.52
2023-04-03T02:56:49.796Z,1.53
2023-04-03T02:59:52.530Z,1.57
2023-04-03T03:02:55.166Z,1.54
2023-04-03T03:06:07.693Z,1.50
2023-04-03T03:09:10.426Z,1.49
2023-04-03T03:12:13.064Z,1.44
2023-04-03T03:15:16.361Z,1.26
2023-04-03T03:18:19.194Z,1.39
2023-04-03T03:21:23.379Z,1.36
2023-04-03T03:24:26.334Z,1.37
2023-04-03T03:27:29.094Z,1.33
2023-04-03T03:30:31.759Z,1.28
2023-04-03T03:33:35.391Z,1.25
2023-04-03T03:36:39.448Z,1.22
2023-04-03T03:39:42.201Z,1.19
2023-04-03T03:42:44.875Z,1.23
2023-04-03T03:45:52.200Z,1.18
2023-04-03T03:48:59.587Z,1.10
2023-04-03T03:52:03.581Z,1.04
2023-04-03T03:55:06.918Z,0.91
2023-04-03T03:58:09.603Z,0.99
2023-04-03T04:01:13.228Z,0.95
2023-04-03T04:04:16.059Z,0.90
2023-04-03T04:07:23.695Z,0.85
2023-04-03T04:10:28.197Z,0.83
2023-04-03T04:13:30.840Z,0.81
2023-04-03T04:16:36.316Z,0.78
2023-04-03T04:19:39.717Z,0.76
2023-04-03T04:22:44.288Z,0.72
2023-04-03T04:25:47.315Z,0.69
2023-04-03T04:28:49.937Z,0.72
2023-04-03T04:31:52.711Z,0.69
2023-04-03T04:34:55.877Z,0.72
2023-04-03T04:38:00.149Z,0.75
2023-04-03T04:41:02.880Z,0.81
2023-04-03T04:44:05.712Z,0.92
2023-04-03T04:47:08.646Z,1.05
2023-04-03T04:50:12.737Z,1.20
2023-04-03T04:53:16.873Z,1.49
2023-04-03T04:56:19.585Z,1.78
2023-04-03T04:59:24.148Z,2.02
2023-04-03T05:02:29.196Z,2.19
2023-04-03T05:05:31.855Z,2.21
2023-04-03T05:08:36.209Z,2.24
2023-04-03T05:11:38.906Z,2.29
2023-04-03T05:14:41.578Z,2.18
2023-04-03T05:17:44.349Z,2.08
2023-04-03T05:20:47.053Z,2.06
2023-04-03T05:23:51.054Z,2.06
2023-04-03T05:26:53.766Z,2.14
2023-04-03T05:29:56.891Z,2.23
2023-04-03T05:33:03.332Z,2.25
2023-04-03T05:36:07.829Z,2.29
2023-04-03T05:39:12.302Z,2.23
2023-04-03T05:42:14.952Z,2.17
2023-04-03T05:45:18.178Z,2.08
2023-04-03T05:48:20.883Z,2.01
2023-04-03T05:51:35.856Z,1.95
2023-04-03T05:54:40.096Z,1.90
2023-04-03T05:57:45.881Z,1.92
2023-04-03T06:00:48.653Z,1.91
2023-04-03T06:03:51.560Z,1.96
2023-04-03T06:06:56.718Z,1.97
2023-04-03T06:10:01.153Z,2.26
2023-04-03T06:13:03.887Z,2.49
2023-04-03T06:16:10.587Z,3.05
2023-04-03T06:19:14.775Z,4.30
2023-04-03T06:22:17.615Z,5.31
2023-04-03T06:25:22.174Z,5.56
2023-04-03T06:28:28.314Z,5.90
2023-04-03T06:31:31.384Z,6.38
2023-04-03T06:34:34.470Z,7.18
2023-04-03T06:37:37.255Z,7.60
2023-04-03T06:40:41.286Z,7.85
2023-04-03T06:43:43.982Z,8.18
2023-04-03T06:46:47.849Z,8.78
2023-04-03T06:49:50.632Z,9.23
2023-04-03T06:52:53.319Z,9.20
2023-04-03T06:55:57.321Z,8.58
2023-04-03T06:59:00.112Z,8.17
2023-04-03T07:02:04.532Z,7.88
2023-04-03T07:05:08.770Z,7.22
2023-04-03T07:08:11.464Z,6.42
2023-04-03T07:11:15.699Z,5.85
2023-04-03T07:14:26.649Z,5.53
2023-04-03T07:17:29.408Z,5.37
2023-04-03T07:20:32.249Z,4.94
2023-04-03T07:23:35.219Z,5.19
2023-04-03T07:26:42.084Z,5.01
2023-04-03T07:29:45.008Z,4.73
2023-04-03T07:32:48.092Z,4.90
2023-04-03T07:35:51.129Z,4.82
2023-04-03T07:38:53.872Z,5.03
2023-04-03T07:41:58.155Z,4.93
2023-04-03T07:45:02.199Z,5.14
2023-04-03T07:48:05.483Z,5.11
2023-04-03T07:51:08.237Z,5.44
2023-04-03T07:54:10.940Z,5.42
2023-04-03T07:57:14.971Z,5.56
2023-04-03T08:00:18.645Z,5.54
2023-04-03T08:03:21.769Z,5.56
2023-04-03T08:06:37.377Z,5.53
2023-04-03T08:09:47.247Z,5.68
2023-04-03T08:12:52.184Z,5.83
2023-04-03T08:15:54.847Z,5.97
2023-04-03T08:18:57.620Z,5.93
2023-04-03T08:22:02.142Z,5.82
2023-04-03T08:25:05.227Z,5.92
2023-04-03T08:28:09.498Z,5.75
2023-04-03T08:31:14.755Z,5.93
2023-04-03T08:34:18.070Z,6.10
2023-04-03T08:37:21.392Z,6.24
2023-04-03T08:40:24.140Z,6.31
2023-04-03T08:43:37.226Z,6.30
2023-04-03T08:46:50.007Z,6.58
2023-04-03T08:49:55.387Z,6.71
2023-04-03T08:52:59.783Z,6.67
2023-04-03T08:56:07.282Z,6.74
2023-04-03T08:59:17.517Z,7.12
2023-04-03T09:02:28.336Z,7.28
2023-04-03T09:05:41.868Z,7.28
2023-04-03T09:08:51.792Z,7.55
2023-04-03T09:12:10.075Z,7.34
2023-04-03T09:15:27.933Z,7.65
2023-04-03T09:18:47.571Z,7.33
2023-04-03T09:21:50.272Z,7.52
2023-04-03T09:25:02.199Z,7.52
2023-04-03T09:28:10.698Z,7.46
2023-04-03T09:31:21.681Z,7.20
2023-04-03T09:34:28.291Z,7.06
2023-04-03T09:37:42.544Z,7.20
2023-04-03T09:40:47.200Z,7.14
2023-04-03T09:43:55.618Z,7.33
2023-04-03T09:46:59.795Z,7.52
2023-04-03T09:50:21.645Z,7.84
2023-04-03T09:53:30.580Z,7.72
2023-04-03T09:56:33.385Z,8.07
2023-04-03T09:59:36.160Z,7.96
2023-04-03T10:02:41.478Z,7.70
2023-04-03T10:05:44.334Z,7.86
2023-04-03T10:09:02.290Z,7.55
2023-04-03T10:12:07.702Z,7.67
2023-04-03T10:15:14.694Z,7.91
2023-04-03T10:18:33.601Z,8.07
2023-04-03T10:21:45.574Z,8.16
2023-04-03T10:24:56.610Z,8.01
2023-04-03T10:28:03.562Z,7.83
2023-04-03T10:31:13.740Z,7.49
2023-04-03T10:34:23.693Z,7.35
2023-04-03T10:37:33.241Z,7.38
2023-04-03T10:40:45.436Z,7.21
2023-04-03T10:43:56.377Z,7.10
2023-04-03T10:47:08.153Z,7.38
2023-04-03T10:50:28.996Z,8.37
2023-04-03T10:53:36.931Z,8.64
2023-04-03T10:56:43.306Z,8.70
2023-04-03T10:59:50.410Z,8.51
2023-04-03T11:02:57.610Z,8.51
2023-04-03T11:06:03.634Z,8.35
2023-04-03T11:09:13.574Z,8.19
2023-04-03T11:12:20.883Z,8.18
2023-04-03T11:15:25.799Z,8.71
2023-04-03T11:18:34.576Z,8.81
2023-04-03T11:21:44.206Z,8.66
2023-04-03T11:24:58.892Z,8.65
2023-04-03T11:28:04.747Z,8.63
2023-04-03T11:31:24.399Z,8.53
2023-04-03T11:34:37.327Z,8.28
2023-04-03T11:37:45.796Z,8.08
2023-04-03T11:40:49.357Z,7.97
2023-04-03T11:43:59.184Z,8.39
2023-04-03T11:47:03.322Z,9.04
2023-04-03T11:50:07.681Z,9.31
2023-04-03T11:53:33.279Z,9.49
2023-04-03T11:56:36.037Z,9.30
2023-04-03T11:59:39.641Z,9.15
2023-04-03T12:02:53.865Z,9.16
2023-04-03T12:05:59.521Z,9.34
2023-04-03T12:09:04.085Z,9.40
2023-04-03T12:12:29.517Z,9.55
2023-04-03T12:15:54.708Z,9.28
2023-04-03T12:19:01.094Z,9.00
2023-04-03T12:22:11.540Z,8.73
2023-04-03T12:25:51.762Z,8.77
2023-04-03T12:28:56.941Z,8.53
2023-04-03T12:32:11.694Z,8.86
2023-04-03T12:35:23.479Z,8.84
2023-04-03T12:38:42.565Z,8.71
2023-04-03T12:41:57.757Z,8.60
2023-04-03T12:45:12.215Z,8.67
2023-04-03T12:48:18.555Z,9.17
2023-04-03T12:51:24.457Z,9.62
2023-04-03T12:54:32.621Z,9.81
2023-04-03T12:57:37.535Z,10.00
2023-04-03T13:00:40.725Z,9.48
2023-04-03T13:03:47.823Z,9.09
2023-04-03T13:06:51.590Z,9.24
2023-04-03T13:10:04.035Z,9.45
2023-04-03T13:13:11.831Z,9.67
2023-04-03T13:16:18.666Z,9.84
2023-04-03T13:19:21.572Z,10.03
2023-04-03T13:22:30.937Z,10.26
2023-04-03T13:25:36.163Z,10.01
2023-04-03T13:28:42.805Z,9.87
2023-04-03T13:31:45.955Z,9.68
2023-04-03T13:34:48.865Z,9.46
2023-04-03T13:37:57.275Z,9.39
2023-04-03T13:41:04.100Z,9.26
2023-04-03T13:44:36.826Z,9.09
2023-04-03T13:47:42.337Z,9.28
2023-04-03T13:51:02.191Z,9.49
2023-04-03T13:54:20.058Z,9.63
2023-04-03T13:57:23.653Z,9.67
2023-04-03T14:00:38.280Z,9.85
2023-04-03T14:03:46.777Z,9.90
2023-04-03T14:06:50.582Z,9.97
2023-04-03T14:09:54.221Z,9.68
2023-04-03T14:12:56.913Z,9.58
2023-04-03T14:16:15.217Z,9.58
2023-04-03T14:19:24.553Z,9.80
2023-04-03T14:22:30.300Z,9.54
2023-04-03T14:25:33.025Z,9.56
2023-04-03T14:28:36.082Z,9.60
2023-04-03T14:31:40.402Z,9.80
2023-04-03T14:34:43.992Z,9.95
2023-04-03T14:37:47.499Z,9.86
2023-04-03T14:40:51.620Z,9.92
2023-04-03T14:43:54.679Z,9.82
2023-04-03T14:46:58.788Z,9.43
2023-04-03T14:50:02.408Z,9.39
2023-04-03T14:53:05.898Z,9.54
2023-04-03T14:56:14.183Z,9.74
2023-04-03T14:59:19.091Z,9.65
2023-04-03T15:02:30.698Z,9.68
2023-04-03T15:05:34.120Z,9.59
2023-04-03T15:08:37.042Z,9.76
2023-04-03T15:11:39.735Z,9.87
2023-04-03T15:14:51.890Z,9.71
2023-04-03T15:17:59.062Z,9.89
2023-04-03T15:21:02.004Z,9.95
2023-04-03T15:24:05.254Z,10.01
2023-04-03T15:27:08.128Z,9.71
2023-04-03T15:30:16.396Z,9.70
2023-04-03T15:33:20.901Z,9.65
2023-04-03T15:39:32.189Z,9.64
2023-04-03T15:42:34.971Z,9.80
2023-04-03T15:45:39.540Z,9.79
2023-04-03T15:48:43.845Z,9.48
2023-04-03T15:51:46.663Z,9.78
2023-04-03T15:54:49.274Z,9.61
2023-04-03T15:57:51.997Z,9.69
2023-04-03T16:00:54.996Z,9.68
2023-04-03T16:03:59.163Z,9.58
2023-04-03T16:07:03.336Z,9.53
2023-04-03T16:10:06.686Z,9.34
2023-04-03T16:13:09.449Z,9.50
2023-04-03T16:16:12.372Z,9.50
2023-04-03T16:19:16.626Z,9.44
2023-04-03T16:22:19.288Z,9.15
2023-04-03T16:25:22.332Z,9.27
2023-04-03T16:28:24.954Z,9.16
2023-04-03T16:31:29.296Z,8.88
2023-04-03T16:34:33.756Z,8.86
2023-04-03T16:37:36.411Z,8.74
2023-04-03T16:40:39.079Z,8.93
2023-04-03T16:46:49.378Z,8.70
2023-04-03T16:49:53.547Z,8.57
2023-04-03T16:52:56.399Z,8.43
2023-04-03T16:55:59.900Z,8.35
2023-04-03T16:59:02.628Z,8.37
2023-04-03T17:02:06.209Z,8.49
2023-04-03T17:05:10.671Z,8.46
2023-04-03T17:08:14.812Z,8.21
2023-04-03T17:11:17.757Z,8.02
2023-04-03T17:14:20.642Z,7.86
2023-04-03T17:17:26.220Z,7.77
2023-04-03T17:20:31.390Z,7.66
2023-04-03T17:23:36.306Z,7.37
2023-04-03T17:26:39.113Z,7.43
2023-04-03T17:29:41.884Z,7.25
2023-04-03T17:32:44.670Z,7.21
2023-04-03T17:35:48.982Z,7.21
2023-04-03T17:38:52.061Z,7.36
2023-04-03T17:41:55.862Z,7.08
2023-04-03T17:44:58.631Z,6.87
2023-04-03T17:48:02.294Z,6.73
2023-04-03T17:51:07.514Z,6.76
2023-04-03T17:54:10.937Z,6.75
2023-04-03T17:57:13.628Z,6.56
2023-04-03T18:00:17.521Z,6.39
2023-04-03T18:03:20.275Z,6.30
2023-04-03T18:06:28.078Z,6.35
2023-04-03T18:09:34.333Z,6.23
2023-04-03T18:12:37.638Z,6.15
2023-04-03T18:15:45.650Z,6.06
2023-04-03T18:18:50.708Z,5.97
2023-04-03T18:22:02.271Z,5.98
2023-04-03T18:25:05.772Z,5.91
2023-04-03T18:28:08.940Z,5.80
2023-04-03T18:31:16.050Z,5.69
2023-04-03T18:34:18.794Z,5.69
2023-04-03T18:37:24.209Z,5.61
2023-04-03T18:40:27.030Z,5.54
2023-04-03T18:43:30.037Z,5.54
2023-04-03T18:46:33.308Z,5.57
2023-04-03T18:49:39.023Z,5.56
2023-04-03T18:52:43.048Z,5.41
2023-04-03T18:55:46.803Z,5.41
2023-04-03T18:58:49.610Z,5.37
2023-04-03T19:01:52.551Z,5.37
2023-04-03T19:04:56.302Z,5.36
2023-04-03T19:08:00.480Z,5.31
2023-04-03T19:11:03.778Z,5.24
2023-04-03T19:14:16.226Z,5.29
2023-04-03T19:17:19.761Z,5.21
2023-04-03T19:20:22.595Z,5.13
2023-04-03T19:23:27.663Z,5.06
2023-04-03T19:26:32.102Z,5.12
2023-04-03T19:29:34.787Z,5.12
2023-04-03T19:32:37.567Z,5.04
2023-04-03T19:35:41.684Z,4.98
2023-04-03T19:38:46.266Z,5.09
2023-04-03T19:41:49.696Z,4.93
2023-04-03T19:44:52.805Z,4.93
2023-04-03T19:47:55.918Z,4.91
2023-04-03T19:50:58.683Z,4.83
2023-04-03T19:54:03.547Z,4.83
2023-04-03T19:57:07.151Z,4.79
2023-04-03T20:00:11.479Z,4.67
2023-04-03T20:03:14.771Z,4.63
2023-04-03T20:06:17.729Z,4.57
2023-04-03T20:09:22.398Z,4.60
2023-04-03T20:12:25.212Z,4.62
2023-04-03T20:15:29.583Z,4.53
2023-04-03T20:18:32.684Z,4.52
2023-04-03T20:21:36.178Z,4.57
2023-04-03T20:24:40.528Z,4.66
2023-04-03T20:27:43.744Z,4.67
2023-04-03T20:30:48.168Z,4.67
2023-04-03T20:33:51.532Z,4.60
2023-04-03T20:36:55.248Z,4.46
2023-04-03T20:39:59.348Z,4.42
2023-04-03T20:43:04.111Z,4.36
2023-04-03T20:46:06.826Z,4.27
2023-04-03T20:49:09.489Z,4.30
2023-04-03T20:52:12.134Z,4.18
2023-04-03T20:55:16.382Z,4.22
2023-04-03T20:58:19.823Z,4.07
2023-04-03T21:01:24.845Z,4.12
2023-04-03T21:04:33.063Z,4.11
2023-04-03T21:08:14.011Z,3.95
2023-04-03T21:11:54.236Z,3.84
2023-04-03T21:15:34.210Z,3.56
2023-04-03T21:18:57.333Z,3.73
2023-04-03T21:22:00.998Z,3.55
2023-04-03T21:25:03.862Z,3.64
2023-04-03T21:28:06.830Z,3.77
2023-04-03T21:31:09.563Z,3.72
2023-04-03T21:34:14.065Z,3.68
2023-04-03T21:37:17.321Z,3.68
2023-04-03T21:40:20.871Z,3.54
2023-04-03T21:43:23.601Z,3.39
2023-04-03T21:46:26.382Z,3.44
2023-04-03T21:49:30.370Z,3.34
2023-04-03T21:52:33.063Z,3.19
2023-04-03T21:55:35.873Z,3.33
2023-04-03T21:58:38.565Z,3.23
2023-04-03T22:01:41.514Z,3.05
2023-04-03T22:04:47.080Z,3.00
2023-04-03T22:07:50.035Z,2.95
2023-04-03T22:10:54.014Z,3.05
2023-04-03T22:13:57.031Z,3.15
2023-04-03T22:17:00.381Z,2.94
2023-04-03T22:20:04.741Z,2.94
2023-04-03T22:23:07.482Z,3.01
2023-04-03T22:26:11.740Z,2.84
2023-04-03T22:29:14.411Z,2.89
2023-04-03T22:32:17.113Z,2.76
2023-04-03T22:35:21.423Z,2.79
2023-04-03T22:38:24.273Z,2.78
2023-04-03T22:41:27.128Z,2.76
2023-04-03T22:44:34.987Z,2.88
2023-04-03T22:47:39.100Z,2.79
2023-04-03T22:50:43.960Z,2.71
2023-04-03T22:53:46.605Z,2.60
2023-04-03T22:56:49.257Z,2.45
2023-04-03T22:59:51.960Z,2.40
2023-04-03T23:02:54.759Z,2.43
2023-04-03T23:05:58.807Z,2.34
2023-04-03T23:09:02.414Z,2.34
2023-04-03T23:12:05.679Z,2.43
2023-04-03T23:15:09.508Z,2.35
2023-04-03T23:18:12.474Z,2.32
2023-04-03T23:21:16.639Z,2.30
2023-04-03T23:24:20.196Z,2.27
2023-04-03T23:27:22.932Z,2.28
2023-04-03T23:30:25.656Z,2.21
2023-04-03T23:33:28.748Z,2.17
2023-04-03T23:36:32.781Z,2.15
2023-04-03T23:39:35.657Z,2.10
2023-04-03T23:42:40.528Z,2.07
2023-04-03T23:45:43.231Z,2.00
2023-04-03T23:48:46.016Z,1.94
2023-04-03T23:51:50.097Z,1.90
2023-04-03T23:54:53.465Z,1.86
2023-04-03T23:57:56.235Z,1.82
